createdAt,value
2016-02-24T00:00:08.564Z,0
2016-02-24T00:01:08.551Z,0
2016-02-24T00:02:08.569Z,0
2016-02-24T00:03:08.572Z,0
2016-02-24T00:04:08.528Z,0
2016-02-24T00:05:08.531Z,0
2016-02-24T00:06:08.517Z,0
2016-02-24T00:07:08.536Z,0
2016-02-24T00:08:08.523Z,0
2016-02-24T00:09:08.525Z,0
2016-02-24T00:10:08.497Z,0
2016-02-24T00:11:08.499Z,0
2016-02-24T00:12:08.518Z,0
2016-02-24T00:13:08.504Z,0
2016-02-24T00:14:08.477Z,0
2016-02-24T00:15:08.698Z,0
2016-02-24T00:16:08.512Z,0
2016-02-24T00:17:08.484Z,0
2016-02-24T00:18:08.549Z,0
2016-02-24T00:19:08.473Z,0
2016-02-24T00:20:08.509Z,0
2016-02-24T00:21:08.526Z,0
2016-02-24T00:22:08.467Z,0
2016-02-24T00:23:08.469Z,0
2016-02-24T00:24:08.488Z,0
2016-02-24T00:25:08.459Z,0
2016-02-24T00:26:08.462Z,0
2016-02-24T00:27:08.481Z,0
2016-02-24T00:28:08.467Z,0
2016-02-24T00:29:08.470Z,0
2016-02-24T00:30:08.442Z,0
2016-02-24T00:31:08.522Z,0
2016-02-24T00:32:08.447Z,0
2016-02-24T00:33:08.434Z,0
2016-02-24T00:34:08.483Z,0
2016-02-24T00:35:08.423Z,0
2016-02-24T00:36:08.416Z,0
2016-02-24T00:37:08.433Z,0
2016-02-24T00:38:08.421Z,0
2016-02-24T00:39:08.423Z,0
2016-02-24T00:40:08.473Z,0
2016-02-24T00:41:08.413Z,0
2016-02-24T00:42:08.415Z,0
2016-02-24T00:43:08.403Z,0
2016-02-24T00:44:08.390Z,0
2016-02-24T00:45:08.409Z,0
2016-02-24T00:46:08.412Z,0
2016-02-24T00:47:08.382Z,0
2016-02-24T00:48:08.385Z,0
2016-02-24T00:49:08.388Z,0
2016-02-24T00:50:08.406Z,0
2016-02-24T00:51:08.393Z,0
2016-02-24T00:52:08.395Z,0
2016-02-24T00:53:08.399Z,0
2016-02-24T00:54:08.214Z,0
2016-02-24T00:55:08.357Z,0
2016-02-24T00:56:08.359Z,0
2016-02-24T00:57:08.362Z,0
2016-02-24T00:58:08.349Z,0
2016-02-24T00:59:08.337Z,0
2016-02-24T01:00:08.386Z,0
2016-02-24T01:01:08.326Z,0
2016-02-24T01:02:08.330Z,0
2016-02-24T01:03:08.363Z,0
2016-02-24T01:04:08.366Z,0
2016-02-24T01:05:08.338Z,0
2016-02-24T01:06:08.372Z,0
2016-02-24T01:07:08.332Z,0
2016-02-24T01:08:08.350Z,0
2016-02-24T01:09:08.337Z,0
2016-02-24T01:10:08.340Z,0
2016-02-24T01:11:08.312Z,0
2016-02-24T01:12:08.314Z,0
2016-02-24T01:13:08.317Z,0
2016-02-24T01:14:08.319Z,0
2016-02-24T01:15:08.323Z,0
2016-02-24T01:16:08.309Z,0
2016-02-24T01:17:08.280Z,0
2016-02-24T01:18:08.298Z,0
2016-02-24T01:19:08.286Z,0
2016-02-24T01:20:08.304Z,0
2016-02-24T01:21:08.275Z,0
2016-02-24T01:22:08.278Z,0
2016-02-24T01:23:08.344Z,0
2016-02-24T01:24:08.268Z,0
2016-02-24T01:25:08.255Z,0
2016-02-24T01:26:08.258Z,0
2016-02-24T01:27:08.275Z,0
2016-02-24T01:28:07.514Z,0
2016-02-24T01:29:08.313Z,0
2016-02-24T01:30:08.284Z,0
2016-02-24T01:31:08.271Z,0
2016-02-24T01:32:08.227Z,0
2016-02-24T01:33:08.246Z,0
2016-02-24T01:34:08.249Z,0
2016-02-24T01:35:08.266Z,0
2016-02-24T01:36:08.222Z,0
2016-02-24T01:37:08.256Z,0
2016-02-24T01:38:08.228Z,0
2016-02-24T01:39:08.262Z,0
2016-02-24T01:40:08.218Z,0
2016-02-24T01:41:08.235Z,0
2016-02-24T01:42:08.207Z,0
2016-02-24T01:43:08.240Z,0
2016-02-24T01:44:08.229Z,0
2016-02-24T01:45:08.215Z,0
2016-02-24T01:46:08.217Z,0
2016-02-24T01:47:08.220Z,0
2016-02-24T01:48:08.207Z,0
2016-02-24T01:49:08.179Z,0
2016-02-24T01:50:08.197Z,0
2016-02-24T01:51:08.200Z,0
2016-02-24T01:52:08.172Z,0
2016-02-24T01:53:08.175Z,0
2016-02-24T01:54:08.178Z,0
2016-02-24T01:55:08.180Z,0
2016-02-24T01:56:08.150Z,0
2016-02-24T01:57:08.186Z,0
2016-02-24T01:58:08.156Z,0
2016-02-24T01:59:08.144Z,0
2016-02-24T02:00:08.162Z,0
2016-02-24T02:01:08.196Z,0
2016-02-24T02:02:08.136Z,0
2016-02-24T02:03:08.060Z,0
2016-02-24T02:04:08.125Z,0
2016-02-24T02:05:08.143Z,0
2016-02-24T02:06:08.162Z,0
2016-02-24T02:07:08.118Z,0
2016-02-24T02:08:08.136Z,0
2016-02-24T02:09:08.124Z,0
2016-02-24T02:10:08.126Z,0
2016-02-24T02:11:08.144Z,0
2016-02-24T02:12:08.116Z,0
2016-02-24T02:13:08.135Z,0
2016-02-24T02:14:08.106Z,0
2016-02-24T02:15:08.404Z,0
2016-02-24T02:16:08.096Z,0
2016-02-24T02:17:08.114Z,0
2016-02-24T02:18:08.101Z,0
2016-02-24T02:19:07.948Z,0
2016-02-24T02:20:08.106Z,0
2016-02-24T02:21:08.093Z,0
2016-02-24T02:22:08.096Z,0
2016-02-24T02:23:08.098Z,0
2016-02-24T02:24:08.070Z,0
2016-02-24T02:25:08.088Z,0
2016-02-24T02:26:08.092Z,0
2016-02-24T02:27:08.078Z,0
2016-02-24T02:28:08.081Z,0
2016-02-24T02:29:08.068Z,0
2016-02-24T02:30:08.087Z,0
2016-02-24T02:31:08.042Z,0
2016-02-24T02:32:08.061Z,0
2016-02-24T02:33:08.126Z,0
2016-02-24T02:34:08.066Z,0
2016-02-24T02:35:08.038Z,0
2016-02-24T02:36:08.055Z,0
2016-02-24T02:37:08.043Z,0
2016-02-24T02:38:08.045Z,0
2016-02-24T02:39:08.048Z,0
2016-02-24T02:40:08.035Z,0
2016-02-24T02:41:08.038Z,0
2016-02-24T02:42:08.024Z,0
2016-02-24T02:43:08.043Z,0
2016-02-24T02:44:08.015Z,0
2016-02-24T02:45:08.017Z,0
2016-02-24T02:46:08.020Z,0
2016-02-24T02:47:08.023Z,0
2016-02-24T02:48:07.932Z,0
2016-02-24T02:49:08.028Z,0
2016-02-24T02:50:08.031Z,0
2016-02-24T02:51:07.986Z,0
2016-02-24T02:52:08.005Z,0
2016-02-24T02:53:08.039Z,0
2016-02-24T02:54:07.994Z,0
2016-02-24T02:55:07.982Z,0
2016-02-24T02:56:08.015Z,0
2016-02-24T02:57:07.987Z,0
2016-02-24T02:58:07.990Z,0
2016-02-24T02:59:07.961Z,0
2016-02-24T03:00:07.994Z,0
2016-02-24T03:01:07.966Z,0
2016-02-24T03:02:07.969Z,0
2016-02-24T03:03:08.019Z,0
2016-02-24T03:04:07.974Z,0
2016-02-24T03:05:08.055Z,0
2016-02-24T03:06:07.964Z,0
2016-02-24T03:07:07.966Z,0
2016-02-24T03:08:07.955Z,0
2016-02-24T03:09:07.941Z,0
2016-02-24T03:10:07.975Z,0
2016-02-24T03:11:07.947Z,0
2016-02-24T03:12:07.793Z,0
2016-02-24T03:13:07.921Z,0
2016-02-24T03:14:07.814Z,0
2016-02-24T03:15:07.910Z,0
2016-02-24T03:16:07.930Z,0
2016-02-24T03:17:07.917Z,0
2016-02-24T03:18:07.983Z,0
2016-02-24T03:19:07.922Z,0
2016-02-24T03:20:07.971Z,0
2016-02-24T03:21:07.913Z,0
2016-02-24T03:22:07.899Z,0
2016-02-24T03:23:07.918Z,0
2016-02-24T03:24:07.904Z,0
2016-02-24T03:25:07.907Z,0
2016-02-24T03:26:07.753Z,0
2016-02-24T03:27:07.882Z,0
2016-02-24T03:28:07.899Z,0
2016-02-24T03:29:07.902Z,0
2016-02-24T03:30:07.873Z,0
2016-02-24T03:31:07.860Z,0
2016-02-24T03:32:07.863Z,0
2016-02-24T03:33:07.740Z,0
2016-02-24T03:34:07.868Z,0
2016-02-24T03:35:07.903Z,0
2016-02-24T03:36:07.873Z,0
2016-02-24T03:37:07.845Z,0
2016-02-24T03:38:07.879Z,0
2016-02-24T03:39:07.695Z,0
2016-02-24T03:40:07.898Z,0
2016-02-24T03:41:07.842Z,0
2016-02-24T03:42:07.879Z,0
2016-02-24T03:43:07.791Z,0
2016-02-24T03:44:07.798Z,0
2016-02-24T03:45:07.789Z,0
2016-02-24T03:46:07.789Z,0
2016-02-24T03:47:07.755Z,0
2016-02-24T03:48:07.769Z,0
2016-02-24T03:49:07.737Z,0
2016-02-24T03:50:07.766Z,0
2016-02-24T03:51:07.720Z,0
2016-02-24T03:52:07.769Z,0
2016-02-24T03:53:07.753Z,0
2016-02-24T03:54:07.708Z,0
2016-02-24T03:55:07.725Z,0
2016-02-24T03:56:07.758Z,0
2016-02-24T03:57:07.714Z,0
2016-02-24T03:58:07.700Z,0
2016-02-24T03:59:07.702Z,0
2016-02-24T04:00:07.735Z,0
2016-02-24T04:01:07.691Z,0
2016-02-24T04:02:07.709Z,0
2016-02-24T04:03:07.727Z,0
2016-02-24T04:04:07.729Z,0
2016-02-24T04:05:07.707Z,0
2016-02-24T04:06:07.678Z,0
2016-02-24T04:07:07.712Z,0
2016-02-24T04:08:07.731Z,0
2016-02-24T04:09:07.686Z,0
2016-02-24T04:10:07.720Z,0
2016-02-24T04:11:07.676Z,0
2016-02-24T04:12:07.678Z,0
2016-02-24T04:13:07.666Z,0
2016-02-24T04:14:07.653Z,0
2016-02-24T04:15:07.655Z,0
2016-02-24T04:16:07.642Z,0
2016-02-24T04:17:07.661Z,0
2016-02-24T04:18:07.632Z,0
2016-02-24T04:19:07.682Z,0
2016-02-24T04:20:07.637Z,0
2016-02-24T04:21:07.625Z,0
2016-02-24T04:22:07.658Z,0
2016-02-24T04:23:07.630Z,0
2016-02-24T04:24:07.633Z,0
2016-02-24T04:25:07.635Z,0
2016-02-24T04:26:07.622Z,0
2016-02-24T04:27:07.625Z,0
2016-02-24T04:28:07.613Z,0
2016-02-24T04:29:07.599Z,0
2016-02-24T04:30:07.601Z,0
2016-02-24T04:31:07.621Z,0
2016-02-24T04:32:07.592Z,0
2016-02-24T04:33:07.579Z,0
2016-02-24T04:34:07.598Z,0
2016-02-24T04:35:07.600Z,0
2016-02-24T04:36:07.586Z,0
2016-02-24T04:37:07.652Z,0
2016-02-24T04:38:07.592Z,0
2016-02-24T04:39:07.564Z,0
2016-02-24T04:40:07.597Z,0
2016-02-24T04:41:07.569Z,0
2016-02-24T04:42:07.619Z,0
2016-02-24T04:43:07.575Z,0
2016-02-24T04:44:07.562Z,0
2016-02-24T04:45:07.564Z,0
2016-02-24T04:46:07.550Z,0
2016-02-24T04:47:07.570Z,0
2016-02-24T04:48:07.541Z,0
2016-02-24T04:49:07.544Z,0
2016-02-24T04:50:07.546Z,0
2016-02-24T04:51:07.549Z,0
2016-02-24T04:52:07.536Z,0
2016-02-24T04:53:07.585Z,0
2016-02-24T04:54:07.515Z,0
2016-02-24T04:55:07.517Z,0
2016-02-24T04:56:07.550Z,0
2016-02-24T04:57:07.522Z,0
2016-02-24T04:58:07.509Z,0
2016-02-24T04:59:07.527Z,0
2016-02-24T05:00:07.530Z,0
2016-02-24T05:01:07.517Z,0
2016-02-24T05:02:07.520Z,0
2016-02-24T05:03:07.350Z,0
2016-02-24T05:04:07.510Z,0
2016-02-24T05:05:07.528Z,0
2016-02-24T05:06:07.483Z,0
2016-02-24T05:07:07.518Z,0
2016-02-24T05:08:07.489Z,0
2016-02-24T05:09:07.476Z,0
2016-02-24T05:10:07.463Z,0
2016-02-24T05:11:07.466Z,0
2016-02-24T05:12:07.485Z,0
2016-02-24T05:13:07.471Z,0
2016-02-24T05:14:07.474Z,0
2016-02-24T05:15:07.462Z,0
2016-02-24T05:16:07.480Z,0
2016-02-24T05:17:07.467Z,0
2016-02-24T05:18:07.454Z,0
2016-02-24T05:19:07.440Z,0
2016-02-24T05:20:07.428Z,0
2016-02-24T05:21:07.445Z,0
2016-02-24T05:22:07.418Z,0
2016-02-24T05:23:07.451Z,0
2016-02-24T05:24:07.267Z,0
2016-02-24T05:25:07.410Z,0
2016-02-24T05:26:07.428Z,0
2016-02-24T05:27:07.415Z,0
2016-02-24T05:28:07.403Z,0
2016-02-24T05:29:07.405Z,0
2016-02-24T05:30:07.408Z,0
2016-02-24T05:31:07.379Z,0
2016-02-24T05:32:07.382Z,0
2016-02-24T05:33:07.416Z,0
2016-02-24T05:34:07.387Z,0
2016-02-24T05:35:07.391Z,0
2016-02-24T05:36:07.377Z,0
2016-02-24T05:37:07.379Z,0
2016-02-24T05:38:07.367Z,0
2016-02-24T05:39:07.385Z,0
2016-02-24T05:40:07.372Z,0
2016-02-24T05:41:07.343Z,0
2016-02-24T05:42:07.346Z,0
2016-02-24T05:43:07.365Z,0
2016-02-24T05:44:07.367Z,0
2016-02-24T05:45:07.199Z,0
2016-02-24T05:46:07.373Z,0
2016-02-24T05:47:07.390Z,0
2016-02-24T05:48:07.362Z,0
2016-02-24T05:49:07.318Z,0
2016-02-24T05:50:07.337Z,0
2016-02-24T05:51:07.323Z,0
2016-02-24T05:52:07.311Z,0
2016-02-24T05:53:07.345Z,0
2016-02-24T05:54:07.317Z,0
2016-02-24T05:55:07.351Z,0
2016-02-24T05:56:07.322Z,0
2016-02-24T05:57:07.293Z,0
2016-02-24T05:58:07.295Z,0
2016-02-24T05:59:07.330Z,0
2016-02-24T06:00:07.285Z,0
2016-02-24T06:01:07.272Z,0
2016-02-24T06:02:07.305Z,0
2016-02-24T06:03:07.294Z,0
2016-02-24T06:04:07.296Z,0
2016-02-24T06:05:07.283Z,0
2016-02-24T06:06:07.255Z,0
2016-02-24T06:07:07.272Z,0
2016-02-24T06:08:07.261Z,0
2016-02-24T06:09:07.279Z,0
2016-02-24T06:10:07.266Z,0
2016-02-24T06:11:07.237Z,0
2016-02-24T06:12:07.240Z,0
2016-02-24T06:13:07.275Z,0
2016-02-24T06:14:07.245Z,0
2016-02-24T06:15:07.248Z,0
2016-02-24T06:16:07.236Z,5
2016-02-24T06:17:07.222Z,5
2016-02-24T06:18:07.241Z,5
2016-02-24T06:19:07.244Z,5
2016-02-24T06:20:07.216Z,5
2016-02-24T06:21:06.936Z,5
2016-02-24T06:22:07.221Z,10
2016-02-24T06:23:07.239Z,10
2016-02-24T06:24:07.210Z,10
2016-02-24T06:25:07.213Z,15
2016-02-24T06:26:07.199Z,15
2016-02-24T06:27:07.187Z,15
2016-02-24T06:28:07.204Z,15
2016-02-24T06:29:07.192Z,20
2016-02-24T06:30:07.195Z,20
2016-02-24T06:31:07.182Z,20
2016-02-24T06:32:07.232Z,20
2016-02-24T06:33:07.187Z,25
2016-02-24T06:34:07.174Z,25
2016-02-24T06:35:07.176Z,25
2016-02-24T06:36:07.134Z,25
2016-02-24T06:37:07.151Z,30
2016-02-24T06:38:07.201Z,30
2016-02-24T06:39:07.156Z,30
2016-02-24T06:40:07.144Z,30
2016-02-24T06:41:07.147Z,30
2016-02-24T06:42:07.149Z,30
2016-02-24T06:43:07.168Z,35
2016-02-24T06:44:06.888Z,35
2016-02-24T06:45:07.181Z,35
2016-02-24T06:46:07.122Z,40
2016-02-24T06:47:10.898Z,40
2016-02-24T06:48:07.126Z,40
2016-02-24T06:49:07.113Z,45
2016-02-24T06:50:07.147Z,45
2016-02-24T06:51:07.088Z,50
2016-02-24T06:52:07.074Z,55
2016-02-24T06:53:07.124Z,55
2016-02-24T06:54:07.080Z,55
2016-02-24T06:55:06.927Z,60
2016-02-24T06:56:07.132Z,60
2016-02-24T06:57:07.071Z,60
2016-02-24T06:58:06.935Z,60
2016-02-24T06:59:07.062Z,60
2016-02-24T07:00:07.080Z,60
2016-02-24T07:01:07.068Z,60
2016-02-24T07:02:07.071Z,60
2016-02-24T07:03:07.073Z,60
2016-02-24T07:04:07.044Z,60
2016-02-24T07:05:07.048Z,60
2016-02-24T07:06:07.081Z,65
2016-02-24T07:07:07.036Z,65
2016-02-24T07:08:07.024Z,65
2016-02-24T07:09:07.031Z,70
2016-02-24T07:10:07.049Z,65
2016-02-24T07:11:07.100Z,65
2016-02-24T07:12:07.039Z,70
2016-02-24T07:13:07.011Z,70
2016-02-24T07:14:07.013Z,75
2016-02-24T07:15:07.016Z,80
2016-02-24T07:16:07.003Z,80
2016-02-24T07:17:06.990Z,80
2016-02-24T07:18:07.009Z,80
2016-02-24T07:19:07.027Z,80
2016-02-24T07:20:06.998Z,80
2016-02-24T07:21:07.016Z,85
2016-02-24T07:22:06.988Z,85
2016-02-24T07:23:06.991Z,90
2016-02-24T07:24:06.993Z,90
2016-02-24T07:25:06.996Z,95
2016-02-24T07:26:06.983Z,95
2016-02-24T07:27:06.235Z,100
2016-02-24T07:28:06.974Z,105
2016-02-24T07:29:06.976Z,110
2016-02-24T07:30:06.979Z,105
2016-02-24T07:31:06.981Z,95
2016-02-24T07:32:07.249Z,90
2016-02-24T07:33:06.956Z,85
2016-02-24T07:34:07.004Z,75
2016-02-24T07:35:06.961Z,70
2016-02-24T07:36:06.978Z,85
2016-02-24T07:37:06.950Z,70
2016-02-24T07:38:06.937Z,70
2016-02-24T07:39:06.939Z,70
2016-02-24T07:40:06.942Z,70
2016-02-24T07:41:06.945Z,70
2016-02-24T07:42:06.916Z,70
2016-02-24T07:43:06.935Z,70
2016-02-24T07:44:06.922Z,75
2016-02-24T07:45:06.941Z,75
2016-02-24T07:46:06.927Z,80
2016-02-24T07:47:06.914Z,85
2016-02-24T07:48:06.917Z,85
2016-02-24T07:49:06.952Z,85
2016-02-24T07:50:06.922Z,100
2016-02-24T07:51:06.910Z,100
2016-02-24T07:52:06.897Z,105
2016-02-24T07:53:06.931Z,110
2016-02-24T07:54:06.918Z,115
2016-02-24T07:55:06.890Z,125
2016-02-24T07:56:06.924Z,115
2016-02-24T07:57:06.895Z,120
2016-02-24T07:58:06.898Z,125
2016-02-24T07:59:06.885Z,120
2016-02-24T08:00:06.918Z,125
2016-02-24T08:01:06.874Z,130
2016-02-24T08:02:06.736Z,130
2016-02-24T08:03:06.896Z,130
2016-02-24T08:04:06.820Z,135
2016-02-24T08:05:06.884Z,160
2016-02-24T08:06:06.888Z,145
2016-02-24T08:07:06.890Z,140
2016-02-24T08:08:06.909Z,150
2016-02-24T08:09:06.880Z,150
2016-02-24T08:10:06.867Z,175
2016-02-24T08:11:06.870Z,175
2016-02-24T08:12:06.857Z,170
2016-02-24T08:13:06.891Z,155
2016-02-24T08:14:06.878Z,165
2016-02-24T08:15:06.927Z,180
2016-02-24T08:16:06.946Z,155
2016-02-24T08:17:06.869Z,175
2016-02-24T08:18:06.888Z,190
2016-02-24T08:19:06.922Z,190
2016-02-24T08:20:06.894Z,200
2016-02-24T08:21:06.865Z,175
2016-02-24T08:22:06.899Z,195
2016-02-24T08:23:06.902Z,190
2016-02-24T08:24:06.921Z,195
2016-02-24T08:25:06.923Z,195
2016-02-24T08:26:06.910Z,205
2016-02-24T08:27:06.913Z,210
2016-02-24T08:28:06.915Z,215
2016-02-24T08:29:06.919Z,215
2016-02-24T08:30:06.921Z,205
2016-02-24T08:31:06.939Z,220
2016-02-24T08:32:06.926Z,220
2016-02-24T08:33:06.976Z,220
2016-02-24T08:34:06.807Z,225
2016-02-24T08:35:06.950Z,220
2016-02-24T08:36:06.953Z,200
2016-02-24T08:37:06.956Z,195
2016-02-24T08:38:06.958Z,195
2016-02-24T08:39:06.961Z,195
2016-02-24T08:40:06.964Z,175
2016-02-24T08:41:06.981Z,170
2016-02-24T08:42:06.984Z,175
2016-02-24T08:43:06.987Z,165
2016-02-24T08:44:06.989Z,160
2016-02-24T08:45:07.008Z,155
2016-02-24T08:46:06.995Z,170
2016-02-24T08:47:06.998Z,170
2016-02-24T08:48:07.016Z,155
2016-02-24T08:49:07.050Z,140
2016-02-24T08:50:07.038Z,110
2016-02-24T08:51:07.024Z,105
2016-02-24T08:52:07.011Z,100
2016-02-24T08:53:07.014Z,105
2016-02-24T08:54:07.016Z,100
2016-02-24T08:55:07.035Z,95
2016-02-24T08:56:06.866Z,95
2016-02-24T08:57:07.025Z,100
2016-02-24T08:58:07.043Z,85
2016-02-24T08:59:07.030Z,80
2016-02-24T09:00:07.049Z,95
2016-02-24T09:01:07.035Z,70
2016-02-24T09:02:07.085Z,70
2016-02-24T09:03:07.088Z,65
2016-02-24T09:04:07.028Z,65
2016-02-24T09:05:07.046Z,65
2016-02-24T09:06:07.034Z,70
2016-02-24T09:07:07.036Z,70
2016-02-24T09:08:07.039Z,75
2016-02-24T09:09:07.073Z,75
2016-02-24T09:10:07.029Z,75
2016-02-24T09:11:07.047Z,80
2016-02-24T09:12:07.034Z,85
2016-02-24T09:13:07.037Z,90
2016-02-24T09:14:07.039Z,100
2016-02-24T09:15:07.057Z,105
2016-02-24T09:16:07.029Z,105
2016-02-24T09:17:07.031Z,110
2016-02-24T09:18:07.050Z,110
2016-02-24T09:19:07.037Z,115
2016-02-24T09:20:07.024Z,120
2016-02-24T09:21:07.011Z,125
2016-02-24T09:22:07.030Z,130
2016-02-24T09:23:06.266Z,130
2016-02-24T09:24:07.019Z,125
2016-02-24T09:25:07.021Z,120
2016-02-24T09:26:07.025Z,115
2016-02-24T09:27:07.027Z,110
2016-02-24T09:28:07.030Z,105
2016-02-24T09:29:07.064Z,100
2016-02-24T09:30:07.020Z,100
2016-02-24T09:31:07.038Z,100
2016-02-24T09:32:07.026Z,100
2016-02-24T09:33:07.028Z,105
2016-02-24T09:34:06.998Z,115
2016-02-24T09:35:07.017Z,120
2016-02-24T09:36:07.020Z,125
2016-02-24T09:37:07.007Z,130
2016-02-24T09:38:07.010Z,140
2016-02-24T09:39:07.012Z,145
2016-02-24T09:40:07.000Z,150
2016-02-24T09:41:06.986Z,150
2016-02-24T09:42:07.006Z,150
2016-02-24T09:43:07.008Z,155
2016-02-24T09:44:06.994Z,150
2016-02-24T09:45:06.998Z,150
2016-02-24T09:46:07.031Z,155
2016-02-24T09:47:07.066Z,150
2016-02-24T09:48:07.006Z,150
2016-02-24T09:49:06.977Z,145
2016-02-24T09:50:06.980Z,145
2016-02-24T09:51:06.967Z,145
2016-02-24T09:52:07.000Z,145
2016-02-24T09:53:06.972Z,150
2016-02-24T09:54:06.975Z,150
2016-02-24T09:55:06.994Z,150
2016-02-24T09:56:06.980Z,150
2016-02-24T09:57:06.968Z,150
2016-02-24T09:58:06.986Z,155
2016-02-24T09:59:06.957Z,155
2016-02-24T10:00:06.960Z,160
2016-02-24T10:01:06.962Z,165
2016-02-24T10:02:06.965Z,165
2016-02-24T10:03:06.951Z,170
2016-02-24T10:04:06.955Z,170
2016-02-24T10:05:06.973Z,170
2016-02-24T10:06:06.945Z,170
2016-02-24T10:07:06.963Z,165
2016-02-24T10:08:06.981Z,165
2016-02-24T10:09:06.953Z,170
2016-02-24T10:10:06.956Z,165
2016-02-24T10:11:06.926Z,165
2016-02-24T10:12:06.945Z,170
2016-02-24T10:13:06.948Z,170
2016-02-24T10:14:07.014Z,180
2016-02-24T10:15:06.953Z,185
2016-02-24T10:16:06.940Z,190
2016-02-24T10:17:06.928Z,195
2016-02-24T10:18:06.930Z,195
2016-02-24T10:19:06.933Z,195
2016-02-24T10:20:06.936Z,190
2016-02-24T10:21:06.922Z,190
2016-02-24T10:22:06.941Z,190
2016-02-24T10:23:06.928Z,175
2016-02-24T10:24:06.930Z,175
2016-02-24T10:25:06.933Z,180
2016-02-24T10:26:06.921Z,190
2016-02-24T10:27:06.923Z,190
2016-02-24T10:28:06.926Z,195
2016-02-24T10:29:06.960Z,200
2016-02-24T10:30:06.962Z,210
2016-02-24T10:31:06.902Z,225
2016-02-24T10:32:06.905Z,235
2016-02-24T10:33:06.907Z,255
2016-02-24T10:34:06.911Z,290
2016-02-24T10:35:06.913Z,305
2016-02-24T10:36:06.932Z,310
2016-02-24T10:37:06.887Z,320
2016-02-24T10:38:06.906Z,315
2016-02-24T10:39:06.909Z,310
2016-02-24T10:40:06.895Z,270
2016-02-24T10:41:06.898Z,255
2016-02-24T10:42:06.885Z,250
2016-02-24T10:43:06.934Z,275
2016-02-24T10:44:06.891Z,285
2016-02-24T10:45:06.909Z,260
2016-02-24T10:46:06.895Z,270
2016-02-24T10:47:06.898Z,275
2016-02-24T10:48:06.917Z,275
2016-02-24T10:49:06.903Z,275
2016-02-24T10:50:06.750Z,270
2016-02-24T10:51:06.909Z,225
2016-02-24T10:52:06.912Z,245
2016-02-24T10:53:06.915Z,235
2016-02-24T10:54:06.917Z,225
2016-02-24T10:55:06.935Z,215
2016-02-24T10:56:06.923Z,215
2016-02-24T10:57:06.910Z,220
2016-02-24T10:58:06.912Z,215
2016-02-24T10:59:06.916Z,195
2016-02-24T11:00:06.918Z,175
2016-02-24T11:01:06.921Z,180
2016-02-24T11:02:06.908Z,180
2016-02-24T11:03:06.910Z,180
2016-02-24T11:04:06.913Z,180
2016-02-24T11:05:06.916Z,180
2016-02-24T11:06:06.903Z,185
2016-02-24T11:07:06.952Z,185
2016-02-24T11:08:06.908Z,195
2016-02-24T11:09:06.911Z,200
2016-02-24T11:10:06.929Z,200
2016-02-24T11:11:06.917Z,205
2016-02-24T11:12:06.904Z,210
2016-02-24T11:13:06.907Z,210
2016-02-24T11:14:06.925Z,220
2016-02-24T11:15:06.943Z,215
2016-02-24T11:16:06.931Z,230
2016-02-24T11:17:06.917Z,220
2016-02-24T11:18:06.903Z,240
2016-02-24T11:19:06.923Z,250
2016-02-24T11:20:06.925Z,260
2016-02-24T11:21:06.911Z,265
2016-02-24T11:22:06.915Z,265
2016-02-24T11:23:06.949Z,265
2016-02-24T11:24:06.936Z,265
2016-02-24T11:25:06.922Z,260
2016-02-24T11:26:06.925Z,255
2016-02-24T11:27:06.928Z,255
2016-02-24T11:28:06.916Z,255
2016-02-24T11:29:06.918Z,250
2016-02-24T11:30:06.920Z,205
2016-02-24T11:31:06.955Z,200
2016-02-24T11:32:06.926Z,200
2016-02-24T11:33:06.928Z,205
2016-02-24T11:34:06.916Z,205
2016-02-24T11:35:06.918Z,200
2016-02-24T11:36:06.921Z,200
2016-02-24T11:37:06.924Z,195
2016-02-24T11:38:06.942Z,195
2016-02-24T11:39:06.929Z,195
2016-02-24T11:40:07.323Z,200
2016-02-24T11:41:06.918Z,210
2016-02-24T11:42:06.906Z,225
2016-02-24T11:43:06.893Z,210
2016-02-24T11:44:06.895Z,210
2016-02-24T11:45:06.914Z,210
2016-02-24T11:46:06.917Z,210
2016-02-24T11:47:06.903Z,215
2016-02-24T11:48:07.360Z,205
2016-02-24T11:49:06.925Z,205
2016-02-24T11:50:06.911Z,205
2016-02-24T11:51:06.899Z,205
2016-02-24T11:52:06.917Z,205
2016-02-24T11:53:06.920Z,200
2016-02-24T11:54:06.907Z,200
2016-02-24T11:55:06.941Z,205
2016-02-24T11:56:06.912Z,235
2016-02-24T11:57:06.900Z,235
2016-02-24T11:58:06.902Z,230
2016-02-24T11:59:06.920Z,230
2016-02-24T12:00:06.907Z,225
2016-02-24T12:01:06.910Z,225
2016-02-24T12:02:06.913Z,225
2016-02-24T12:03:06.900Z,225
2016-02-24T12:04:06.902Z,225
2016-02-24T12:05:06.907Z,225
2016-02-24T12:06:06.909Z,225
2016-02-24T12:07:06.897Z,225
2016-02-24T12:08:06.900Z,225
2016-02-24T12:09:06.918Z,225
2016-02-24T12:10:06.905Z,220
2016-02-24T12:11:06.908Z,225
2016-02-24T12:12:06.926Z,225
2016-02-24T12:13:06.913Z,230
2016-02-24T12:14:06.884Z,240
2016-02-24T12:15:09.919Z,240
2016-02-24T12:16:06.905Z,205
2016-02-24T12:17:06.924Z,200
2016-02-24T12:18:06.895Z,200
2016-02-24T12:19:06.898Z,200
2016-02-24T12:20:06.947Z,200
2016-02-24T12:21:06.903Z,205
2016-02-24T12:22:06.938Z,220
2016-02-24T12:23:06.908Z,240
2016-02-24T12:24:06.927Z,240
2016-02-24T12:25:06.899Z,235
2016-02-24T12:26:06.916Z,225
2016-02-24T12:27:06.904Z,230
2016-02-24T12:28:06.907Z,200
2016-02-24T12:29:06.909Z,205
2016-02-24T12:30:06.896Z,210
2016-02-24T12:31:06.899Z,215
2016-02-24T12:32:06.901Z,215
2016-02-24T12:33:06.904Z,210
2016-02-24T12:34:06.891Z,215
2016-02-24T12:35:06.894Z,210
2016-02-24T12:36:06.912Z,215
2016-02-24T12:37:06.899Z,215
2016-02-24T12:38:06.948Z,215
2016-02-24T12:39:06.886Z,220
2016-02-24T12:40:06.937Z,260
2016-02-24T12:41:06.767Z,260
2016-02-24T12:42:06.894Z,230
2016-02-24T12:43:06.929Z,220
2016-02-24T12:44:06.884Z,220
2016-02-24T12:45:06.950Z,215
2016-02-24T12:46:06.906Z,210
2016-02-24T12:47:06.890Z,210
2016-02-24T12:48:06.930Z,210
2016-02-24T12:49:06.891Z,215
2016-02-24T12:50:06.914Z,215
2016-02-24T12:51:06.892Z,220
2016-02-24T12:52:06.853Z,215
2016-02-24T12:53:06.852Z,215
2016-02-24T12:54:06.851Z,215
2016-02-24T12:55:06.849Z,215
2016-02-24T12:56:06.834Z,210
2016-02-24T12:57:06.848Z,210
2016-02-24T12:58:06.849Z,210
2016-02-24T12:59:06.819Z,210
2016-02-24T13:00:06.869Z,205
2016-02-24T13:01:06.823Z,205
2016-02-24T13:02:06.856Z,205
2016-02-24T13:03:06.843Z,200
2016-02-24T13:04:06.829Z,205
2016-02-24T13:05:06.849Z,205
2016-02-24T13:06:06.819Z,200
2016-02-24T13:07:06.868Z,200
2016-02-24T13:08:06.823Z,200
2016-02-24T13:09:06.826Z,205
2016-02-24T13:10:06.828Z,200
2016-02-24T13:11:06.815Z,205
2016-02-24T13:12:06.817Z,205
2016-02-24T13:13:06.835Z,205
2016-02-24T13:14:06.807Z,200
2016-02-24T13:15:06.857Z,210
2016-02-24T13:16:06.907Z,210
2016-02-24T13:17:06.847Z,210
2016-02-24T13:18:06.834Z,220
2016-02-24T13:19:06.837Z,235
2016-02-24T13:20:06.870Z,240
2016-02-24T13:21:06.826Z,240
2016-02-24T13:22:06.829Z,215
2016-02-24T13:23:06.847Z,210
2016-02-24T13:24:06.834Z,220
2016-02-24T13:25:06.867Z,225
2016-02-24T13:26:06.840Z,210
2016-02-24T13:27:06.858Z,205
2016-02-24T13:28:06.844Z,215
2016-02-24T13:29:06.832Z,210
2016-02-24T13:30:06.866Z,210
2016-02-24T13:31:06.837Z,210
2016-02-24T13:32:06.715Z,200
2016-02-24T13:33:06.842Z,200
2016-02-24T13:34:06.892Z,180
2016-02-24T13:35:06.880Z,190
2016-02-24T13:36:06.882Z,190
2016-02-24T13:37:06.853Z,205
2016-02-24T13:38:06.855Z,200
2016-02-24T13:39:06.875Z,205
2016-02-24T13:40:06.846Z,200
2016-02-24T13:41:06.848Z,205
2016-02-24T13:42:06.867Z,210
2016-02-24T13:43:06.854Z,200
2016-02-24T13:44:06.841Z,210
2016-02-24T13:45:06.874Z,210
2016-02-24T13:46:06.878Z,205
2016-02-24T13:47:06.912Z,195
2016-02-24T13:48:06.867Z,185
2016-02-24T13:49:06.854Z,185
2016-02-24T13:50:06.888Z,180
2016-02-24T13:51:06.890Z,175
2016-02-24T13:52:06.894Z,175
2016-02-24T13:53:06.865Z,170
2016-02-24T13:54:06.915Z,170
2016-02-24T13:55:06.887Z,175
2016-02-24T13:56:06.874Z,180
2016-02-24T13:57:06.876Z,185
2016-02-24T13:58:06.878Z,185
2016-02-24T13:59:06.866Z,180
2016-02-24T14:00:06.915Z,185
2016-02-24T14:01:06.886Z,175
2016-02-24T14:02:06.890Z,170
2016-02-24T14:03:06.908Z,170
2016-02-24T14:04:06.894Z,170
2016-02-24T14:05:07.014Z,165
2016-02-24T14:06:06.891Z,165
2016-02-24T14:07:06.909Z,165
2016-02-24T14:08:06.896Z,170
2016-02-24T14:09:06.899Z,200
2016-02-24T14:10:06.902Z,195
2016-02-24T14:11:06.904Z,195
2016-02-24T14:12:06.907Z,185
2016-02-24T14:13:06.925Z,205
2016-02-24T14:14:06.912Z,200
2016-02-24T14:15:06.916Z,195